createdAt,value
2018-11-10T00:00:21.832Z,16.00
2018-11-10T00:02:53.972Z,15.13
2018-11-10T00:05:24.455Z,15.07
2018-11-10T00:07:52.936Z,15.40
2018-11-10T00:10:22.771Z,14.73
2018-11-10T00:12:51.395Z,14.97
2018-11-10T00:15:20.915Z,14.10
2018-11-10T00:17:49.445Z,14.63
2018-11-10T00:20:18.171Z,13.13
2018-11-10T00:22:46.718Z,13.10
2018-11-10T00:25:15.534Z,13.87
2018-11-10T00:27:45.779Z,12.97
2018-11-10T00:30:15.744Z,13.20
2018-11-10T00:32:44.904Z,12.80
2018-11-10T00:35:13.568Z,13.17
2018-11-10T00:37:42.738Z,13.00
2018-11-10T00:40:14.102Z,11.50
2018-11-10T00:42:43.104Z,13.00
2018-11-10T00:45:11.807Z,12.20
2018-11-10T00:47:41.209Z,11.50
2018-11-10T00:50:11.526Z,11.57
2018-11-10T00:52:40.102Z,13.13
2018-11-10T00:55:08.957Z,12.37
2018-11-10T00:57:37.381Z,12.40
2018-11-10T01:00:10.633Z,14.60
2018-11-10T01:02:39.479Z,12.63
2018-11-10T01:05:08.075Z,11.47
2018-11-10T01:07:36.615Z,11.93
2018-11-10T01:10:06.450Z,11.30
2018-11-10T01:12:34.885Z,11.37
2018-11-10T01:15:03.904Z,10.40
2018-11-10T01:17:32.660Z,10.17
2018-11-10T01:20:01.114Z,10.10
2018-11-10T01:22:29.789Z,10.60
2018-11-10T01:24:59.001Z,9.70
2018-11-10T01:27:27.566Z,12.50
2018-11-10T01:29:56.302Z,9.07
2018-11-10T01:32:26.326Z,9.40
2018-11-10T01:34:58.297Z,9.37
2018-11-10T01:37:35.948Z,10.30
2018-11-10T01:40:07.219Z,8.53
2018-11-10T01:42:35.792Z,9.67
2018-11-10T01:45:05.604Z,8.90
2018-11-10T01:47:34.297Z,8.57
2018-11-10T01:50:05.911Z,8.70
2018-11-10T01:52:34.645Z,10.07
2018-11-10T01:55:03.312Z,7.70
2018-11-10T01:57:32.700Z,7.83
2018-11-10T02:00:01.225Z,7.77
2018-11-10T02:02:29.797Z,7.00
2018-11-10T02:04:58.345Z,7.87
2018-11-10T02:07:26.997Z,7.20
2018-11-10T02:09:57.659Z,6.57
2018-11-10T02:12:26.306Z,7.90
2018-11-10T02:14:54.708Z,6.33
2018-11-10T02:17:23.344Z,6.10
2018-11-10T02:19:51.909Z,5.63
2018-11-10T02:22:20.411Z,5.67
2018-11-10T02:24:49.047Z,6.07
2018-11-10T02:27:23.481Z,5.30
2018-11-10T02:29:53.800Z,5.13
2018-11-10T02:32:22.249Z,6.80
2018-11-10T02:34:51.477Z,4.90
2018-11-10T02:37:21.366Z,6.47
2018-11-10T02:39:50.183Z,4.90
2018-11-10T02:42:18.594Z,4.80
2018-11-10T02:44:49.901Z,6.53
2018-11-10T02:49:50.603Z,5.80
2018-11-10T02:52:20.064Z,4.83
2018-11-10T02:54:48.413Z,6.10
2018-11-10T02:57:16.789Z,5.90
2018-11-10T02:59:45.168Z,4.77
2018-11-10T03:02:13.660Z,4.40
2018-11-10T03:04:42.151Z,4.77
2018-11-10T03:07:11.501Z,4.67
2018-11-10T03:09:39.903Z,4.03
2018-11-10T03:12:08.332Z,7.63
2018-11-10T03:14:37.287Z,5.93
2018-11-10T03:17:05.921Z,4.53
2018-11-10T03:19:34.250Z,3.90
2018-11-10T03:22:02.804Z,4.57
2018-11-10T03:24:32.063Z,3.80
2018-11-10T03:27:00.796Z,4.47
2018-11-10T03:29:29.323Z,4.27
2018-11-10T03:31:58.032Z,6.93
2018-11-10T03:34:26.661Z,4.30
2018-11-10T03:36:56.372Z,8.40
2018-11-10T03:39:24.901Z,3.90
2018-11-10T03:41:53.291Z,4.47
2018-11-10T03:44:21.766Z,4.40
2018-11-10T03:46:50.460Z,4.37
2018-11-10T03:49:19.484Z,4.77
2018-11-10T03:51:47.948Z,5.03
2018-11-10T03:54:16.521Z,4.90
2018-11-10T03:56:45.170Z,4.87
2018-11-10T03:59:15.630Z,5.50
2018-11-10T04:01:44.213Z,7.83
2018-11-10T04:04:12.667Z,6.70
2018-11-10T04:06:42.313Z,4.93
2018-11-10T04:09:11.435Z,6.07
2018-11-10T04:11:40.056Z,5.40
2018-11-10T04:14:08.937Z,6.07
2018-11-10T04:16:37.437Z,6.03
2018-11-10T04:19:06.205Z,5.47
2018-11-10T04:21:34.697Z,5.43
2018-11-10T04:24:03.213Z,5.53
2018-11-10T04:26:31.796Z,6.50
2018-11-10T04:29:01.177Z,5.77
2018-11-10T04:31:29.731Z,5.90
2018-11-10T04:33:58.220Z,6.63
2018-11-10T04:36:26.820Z,7.07
2018-11-10T04:38:57.608Z,6.43
2018-11-10T04:41:26.246Z,7.13
2018-11-10T04:43:54.777Z,6.93
2018-11-10T04:46:23.126Z,6.70
2018-11-10T04:48:52.053Z,7.80
2018-11-10T04:51:23.289Z,7.17
2018-11-10T04:53:51.759Z,6.60
2018-11-10T04:56:20.855Z,6.53
2018-11-10T04:58:49.965Z,7.93
2018-11-10T05:01:18.528Z,8.10
2018-11-10T05:03:47.063Z,8.93
2018-11-10T05:06:15.489Z,7.83
2018-11-10T05:08:45.848Z,7.90
2018-11-10T05:11:14.176Z,8.20
2018-11-10T05:13:42.617Z,7.77
2018-11-10T05:16:11.262Z,7.20
2018-11-10T05:18:41.117Z,7.50
2018-11-10T05:21:09.547Z,8.43
2018-11-10T05:23:37.972Z,9.50
2018-11-10T05:26:06.674Z,7.87
2018-11-10T05:31:08.522Z,7.63
2018-11-10T05:33:36.816Z,8.40
2018-11-10T05:36:05.600Z,8.00
2018-11-10T05:38:35.031Z,8.87
2018-11-10T05:41:03.493Z,8.90
2018-11-10T05:43:31.867Z,8.77
2018-11-10T05:46:00.353Z,8.97
2018-11-10T05:48:33.363Z,9.63
2018-11-10T05:51:02.161Z,9.10
2018-11-10T05:53:30.627Z,8.93
2018-11-10T05:55:59.894Z,9.33
2018-11-10T05:58:28.623Z,10.50
2018-11-10T06:00:57.079Z,10.20
2018-11-10T06:03:25.458Z,10.80
2018-11-10T06:05:54.054Z,12.00
2018-11-10T06:08:22.590Z,9.90
2018-11-10T06:10:50.972Z,12.27
2018-11-10T06:13:19.419Z,11.10
2018-11-10T06:15:47.839Z,11.00
2018-11-10T06:18:21.018Z,12.37
2018-11-10T06:20:49.490Z,11.70
2018-11-10T06:23:17.935Z,11.23
2018-11-10T06:25:53.195Z,13.97
2018-11-10T06:28:21.591Z,9.80
2018-11-10T06:30:49.996Z,9.60
2018-11-10T06:33:18.645Z,8.97
2018-11-10T06:35:47.089Z,8.30
2018-11-10T06:38:15.459Z,9.30
2018-11-10T06:40:43.810Z,8.10
2018-11-10T06:43:12.354Z,8.03
2018-11-10T06:45:40.863Z,7.83
2018-11-10T06:48:09.272Z,7.73
2018-11-10T06:50:37.752Z,7.50
2018-11-10T06:53:06.660Z,7.73
2018-11-10T06:55:35.215Z,7.67
2018-11-10T06:58:03.743Z,6.50
2018-11-10T07:00:32.201Z,7.53
2018-11-10T07:03:00.566Z,6.67
2018-11-10T07:05:29.998Z,6.33
2018-11-10T07:07:58.498Z,6.30
2018-11-10T07:10:26.808Z,6.30
2018-11-10T07:12:55.727Z,7.20
2018-11-10T07:15:26.521Z,6.30
2018-11-10T07:17:54.888Z,5.90
2018-11-10T07:20:23.295Z,4.93
2018-11-10T07:22:53.196Z,6.37
2018-11-10T07:25:23.343Z,5.40
2018-11-10T07:27:51.895Z,6.07
2018-11-10T07:30:20.352Z,5.67
2018-11-10T07:32:48.856Z,6.07
2018-11-10T07:35:17.137Z,5.50
2018-11-10T07:37:45.539Z,4.97
2018-11-10T07:40:14.217Z,5.00
2018-11-10T07:42:42.602Z,4.63
2018-11-10T07:45:14.573Z,5.63
2018-11-10T07:47:43.661Z,5.20
2018-11-10T07:50:12.278Z,5.23
2018-11-10T07:52:41.579Z,5.17
2018-11-10T07:55:12.148Z,6.90
2018-11-10T07:57:40.689Z,6.90
2018-11-10T08:00:17.131Z,4.53
2018-11-10T08:02:45.693Z,3.90
2018-11-10T08:05:14.782Z,4.20
2018-11-10T08:07:43.800Z,5.43
2018-11-10T08:10:12.830Z,5.93
2018-11-10T08:12:41.170Z,8.10
2018-11-10T08:15:12.828Z,5.30
2018-11-10T08:17:41.610Z,5.90
2018-11-10T08:20:10.980Z,6.00
2018-11-10T08:22:39.417Z,5.50
2018-11-10T08:25:10.611Z,5.47
2018-11-10T08:27:39.387Z,4.77
2018-11-10T08:30:09.854Z,4.70
2018-11-10T08:32:38.180Z,4.30
2018-11-10T08:35:08.456Z,4.57
2018-11-10T08:37:37.492Z,4.30
2018-11-10T08:40:10.205Z,4.40
2018-11-10T08:42:41.640Z,3.90
2018-11-10T08:45:11.788Z,4.93
2018-11-10T08:47:42.860Z,4.07
2018-11-10T08:50:14.722Z,3.90
2018-11-10T08:52:45.268Z,4.10
2018-11-10T08:55:15.738Z,3.93
2018-11-10T08:57:45.758Z,4.67
2018-11-10T09:00:18.162Z,6.17
2018-11-10T09:02:47.402Z,5.20
2018-11-10T09:05:16.096Z,4.90
2018-11-10T09:07:44.842Z,3.93
2018-11-10T09:10:14.664Z,4.10
2018-11-10T09:12:44.875Z,3.40
2018-11-10T09:15:20.366Z,4.70
2018-11-10T09:17:49.338Z,3.97
2018-11-10T09:20:19.259Z,3.83
2018-11-10T09:22:50.903Z,4.47
2018-11-10T09:25:21.059Z,3.90
2018-11-10T09:27:49.946Z,3.57
2018-11-10T09:30:18.965Z,3.70
2018-11-10T09:32:51.453Z,4.07
2018-11-10T09:35:20.510Z,4.43
2018-11-10T09:37:51.455Z,4.83
2018-11-10T09:40:20.495Z,5.10
2018-11-10T09:42:49.170Z,4.73
2018-11-10T09:45:17.841Z,3.83
2018-11-10T09:47:46.646Z,4.30
2018-11-10T09:50:21.062Z,4.80
2018-11-10T09:52:52.297Z,3.90
2018-11-10T09:55:21.253Z,5.33
2018-11-10T09:57:50.787Z,4.60
2018-11-10T10:00:20.841Z,3.90
2018-11-10T10:02:50.917Z,4.27
2018-11-10T10:05:19.187Z,4.07
2018-11-10T10:07:47.852Z,4.97
2018-11-10T10:10:17.982Z,4.50
2018-11-10T10:15:27.141Z,4.50
2018-11-10T10:17:55.458Z,6.77
2018-11-10T10:20:25.537Z,4.27
2018-11-10T10:22:54.415Z,6.50
2018-11-10T10:25:24.518Z,4.90
2018-11-10T10:27:52.833Z,4.47
2018-11-10T10:30:23.624Z,4.80
2018-11-10T10:32:51.952Z,4.33
2018-11-10T10:35:21.349Z,4.20
2018-11-10T10:37:50.512Z,4.10
2018-11-10T10:40:18.949Z,4.27
2018-11-10T10:42:47.892Z,3.53
2018-11-10T10:45:18.778Z,3.63
2018-11-10T10:47:47.187Z,5.00
2018-11-10T10:50:16.798Z,6.77
2018-11-10T10:52:45.351Z,4.80
2018-11-10T10:55:15.034Z,4.60
2018-11-10T10:57:44.313Z,3.90
2018-11-10T11:00:19.215Z,4.00
2018-11-10T11:02:53.197Z,5.33
2018-11-10T11:05:27.253Z,4.50
2018-11-10T11:07:56.635Z,8.80
2018-11-10T11:10:25.093Z,3.67
2018-11-10T11:12:54.319Z,3.53
2018-11-10T11:15:23.280Z,3.90
2018-11-10T11:17:52.483Z,3.07
2018-11-10T11:20:22.133Z,6.03
2018-11-10T11:22:50.890Z,5.07
2018-11-10T11:25:20.073Z,4.43
2018-11-10T11:27:51.336Z,4.20
2018-11-10T11:30:22.388Z,4.00
2018-11-10T11:32:50.886Z,3.73
2018-11-10T11:35:20.174Z,5.70
2018-11-10T11:37:49.910Z,3.13
2018-11-10T11:40:20.491Z,4.37
2018-11-10T11:42:49.049Z,3.77
2018-11-10T11:45:17.555Z,5.07
2018-11-10T11:47:45.998Z,4.13
2018-11-10T11:50:15.330Z,4.57
2018-11-10T11:52:44.243Z,3.50
2018-11-10T11:55:13.743Z,4.40
2018-11-10T11:57:42.633Z,4.50
2018-11-10T12:00:13.548Z,3.50
2018-11-10T12:02:42.693Z,4.97
2018-11-10T12:05:12.658Z,3.67
2018-11-10T12:07:41.050Z,3.80
2018-11-10T12:10:13.389Z,6.60
2018-11-10T12:12:43.042Z,4.13
2018-11-10T12:15:13.749Z,5.07
2018-11-10T12:17:43.274Z,3.97
2018-11-10T12:20:14.071Z,5.17
2018-11-10T12:22:43.514Z,4.93
2018-11-10T12:25:13.736Z,4.83
2018-11-10T12:27:43.920Z,7.90
2018-11-10T12:30:12.678Z,5.00
2018-11-10T12:32:41.329Z,5.00
2018-11-10T12:35:12.449Z,4.30
2018-11-10T12:37:41.294Z,4.57
2018-11-10T12:40:11.657Z,5.23
2018-11-10T12:42:40.439Z,5.23
2018-11-10T12:45:10.449Z,5.30
2018-11-10T12:47:40.386Z,5.03
2018-11-10T12:50:12.534Z,5.50
2018-11-10T12:52:42.205Z,6.10
2018-11-10T12:55:12.440Z,5.77
2018-11-10T12:57:41.827Z,5.33
2018-11-10T13:00:12.020Z,5.87
2018-11-10T13:02:40.868Z,6.00
2018-11-10T13:05:10.564Z,5.97
2018-11-10T13:07:40.983Z,5.93
2018-11-10T13:10:10.329Z,6.30
2018-11-10T13:12:39.302Z,6.30
2018-11-10T13:15:09.525Z,6.70
2018-11-10T13:17:39.484Z,6.37
2018-11-10T13:20:11.167Z,7.40
2018-11-10T13:22:39.724Z,6.90
2018-11-10T13:25:09.338Z,7.10
2018-11-10T13:27:41.827Z,9.43
2018-11-10T13:30:12.603Z,8.10
2018-11-10T13:32:42.005Z,10.40
2018-11-10T13:35:11.658Z,8.87
2018-11-10T13:37:41.325Z,8.10
2018-11-10T13:40:10.557Z,7.77
2018-11-10T13:42:40.483Z,8.50
2018-11-10T13:45:11.182Z,8.67
2018-11-10T13:47:39.661Z,11.63
2018-11-10T13:50:09.853Z,9.43
2018-11-10T13:52:42.013Z,9.90
2018-11-10T13:55:11.044Z,9.90
2018-11-10T13:57:44.447Z,9.53
2018-11-10T14:00:16.860Z,10.10
2018-11-10T14:02:45.329Z,9.43
2018-11-10T14:05:14.887Z,10.33
2018-11-10T14:07:44.389Z,9.77
2018-11-10T14:10:15.165Z,14.23
2018-11-10T14:12:45.123Z,13.10
2018-11-10T14:15:16.001Z,11.50
2018-11-10T14:17:46.096Z,12.80
2018-11-10T14:20:17.012Z,11.90
2018-11-10T14:22:46.768Z,11.30
2018-11-10T14:25:17.352Z,13.70
2018-11-10T14:27:46.002Z,11.03
2018-11-10T14:30:16.007Z,11.97
2018-11-10T14:32:44.992Z,10.00
2018-11-10T14:35:13.658Z,10.33
2018-11-10T14:37:43.079Z,10.20
2018-11-10T14:40:14.486Z,10.97
2018-11-10T14:42:43.736Z,9.20
2018-11-10T14:45:13.548Z,9.03
2018-11-10T14:47:43.452Z,7.37
2018-11-10T14:50:12.841Z,7.90
2018-11-10T14:52:41.487Z,8.60
2018-11-10T14:55:10.841Z,7.77
2018-11-10T14:57:39.675Z,7.30
2018-11-10T15:00:16.189Z,7.80
2018-11-10T15:02:44.784Z,6.40
2018-11-10T15:05:14.248Z,6.73
2018-11-10T15:07:43.582Z,6.57
2018-11-10T15:10:14.723Z,6.97
2018-11-10T15:12:44.189Z,6.50
2018-11-10T15:15:13.917Z,7.40
2018-11-10T15:17:44.452Z,6.00
2018-11-10T15:20:15.880Z,5.90
2018-11-10T15:22:44.576Z,6.30
2018-11-10T15:25:15.126Z,5.80
2018-11-10T15:27:43.749Z,7.00
2018-11-10T15:30:15.028Z,5.97
2018-11-10T15:32:45.201Z,6.40
2018-11-10T15:35:15.765Z,7.00
2018-11-10T15:37:47.092Z,7.10
2018-11-10T15:40:17.413Z,7.30
2018-11-10T15:42:46.071Z,7.53
2018-11-10T15:45:17.501Z,8.43
2018-11-10T15:47:46.515Z,8.80
2018-11-10T15:50:16.462Z,8.33
2018-11-10T15:52:46.406Z,8.20
2018-11-10T15:55:15.952Z,7.17
2018-11-10T15:57:44.634Z,8.03
2018-11-10T16:00:16.157Z,8.10
2018-11-10T16:02:44.699Z,7.40
2018-11-10T16:05:14.824Z,8.10
2018-11-10T16:07:50.068Z,8.00
2018-11-10T16:10:18.864Z,7.70
2018-11-10T16:12:47.633Z,10.33
2018-11-10T16:15:17.107Z,7.90
2018-11-10T16:17:45.739Z,7.40
2018-11-10T16:20:19.626Z,6.50
2018-11-10T16:22:50.035Z,6.67
2018-11-10T16:25:18.828Z,7.20
2018-11-10T16:27:47.505Z,6.50
2018-11-10T16:30:17.364Z,6.37
2018-11-10T16:32:49.938Z,6.13
2018-11-10T16:35:18.472Z,6.53
2018-11-10T16:37:48.023Z,6.20
2018-11-10T16:40:17.904Z,6.70
2018-11-10T16:42:47.886Z,6.03
2018-11-10T16:45:20.188Z,5.87
2018-11-10T16:47:52.654Z,6.10
2018-11-10T16:50:22.358Z,6.03
2018-11-10T16:52:51.175Z,5.10
2018-11-10T16:55:19.980Z,6.70
2018-11-10T16:57:48.544Z,6.40
2018-11-10T17:00:18.308Z,5.60
2018-11-10T17:02:47.161Z,6.40
2018-11-10T17:05:16.624Z,7.13
2018-11-10T17:07:45.240Z,6.90
2018-11-10T17:10:15.838Z,8.13
2018-11-10T17:12:45.084Z,6.93
2018-11-10T17:15:13.818Z,7.73
2018-11-10T17:17:42.340Z,7.77
2018-11-10T17:20:13.422Z,7.10
2018-11-10T17:22:42.615Z,7.27
2018-11-10T17:25:12.772Z,7.30
2018-11-10T17:27:41.652Z,7.97
2018-11-10T17:30:19.735Z,8.17
2018-11-10T17:32:48.144Z,8.57
2018-11-10T17:35:16.950Z,9.47
2018-11-10T17:37:46.166Z,9.60
2018-11-10T17:40:15.196Z,9.50
2018-11-10T17:42:43.719Z,9.87
2018-11-10T17:45:13.348Z,10.67
2018-11-10T17:50:16.741Z,9.80
2018-11-10T17:52:45.343Z,9.70
2018-11-10T17:55:15.987Z,11.47
2018-11-10T17:57:45.413Z,12.80
2018-11-10T18:00:13.850Z,11.40
2018-11-10T18:02:43.432Z,11.13
2018-11-10T18:05:13.197Z,13.23
2018-11-10T18:07:41.623Z,12.20
2018-11-10T18:10:13.194Z,12.57
2018-11-10T18:12:42.368Z,13.03
2018-11-10T18:15:11.116Z,11.67
2018-11-10T18:17:39.907Z,12.47
2018-11-10T18:20:11.111Z,12.80
2018-11-10T18:22:39.717Z,15.13
2018-11-10T18:25:08.136Z,14.93
2018-11-10T18:27:36.526Z,13.70
2018-11-10T18:30:07.168Z,12.97
2018-11-10T18:32:35.855Z,13.57
2018-11-10T18:35:06.028Z,15.73
2018-11-10T18:37:35.166Z,15.30
2018-11-10T18:40:03.918Z,16.20
2018-11-10T18:42:32.684Z,13.70
2018-11-10T18:45:06.893Z,13.80
2018-11-10T18:47:35.961Z,15.40
2018-11-10T18:50:07.131Z,15.40
2018-11-10T18:52:35.912Z,14.53
2018-11-10T18:55:04.463Z,14.60
2018-11-10T18:57:33.350Z,16.40
2018-11-10T19:00:02.768Z,15.90
2018-11-10T19:02:31.513Z,16.00
2018-11-10T19:05:01.483Z,19.20
2018-11-10T19:07:33.131Z,18.47
2018-11-10T19:10:02.314Z,20.03
2018-11-10T19:12:30.947Z,19.27
2018-11-10T19:14:59.423Z,20.47
2018-11-10T19:17:28.611Z,20.70
2018-11-10T19:19:57.120Z,19.87
2018-11-10T19:22:26.714Z,18.70
2018-11-10T19:24:56.224Z,19.20
2018-11-10T19:27:24.868Z,20.37
2018-11-10T19:29:54.154Z,20.63
2018-11-10T19:32:22.722Z,17.63
2018-11-10T19:34:51.044Z,15.63
2018-11-10T19:37:19.553Z,16.83
2018-11-10T19:39:49.253Z,15.37
2018-11-10T19:42:17.795Z,16.10
2018-11-10T19:44:46.169Z,15.63
2018-11-10T19:47:15.389Z,14.70
2018-11-10T19:49:44.415Z,14.33
2018-11-10T19:52:13.248Z,15.60
2018-11-10T19:54:44.520Z,18.60
2018-11-10T19:57:13.420Z,16.03
2018-11-10T19:59:42.086Z,14.70
2018-11-10T20:02:12.035Z,13.50
2018-11-10T20:04:42.555Z,14.43
2018-11-10T20:07:11.055Z,14.33
2018-11-10T20:09:41.385Z,13.60
2018-11-10T20:12:09.887Z,13.40
2018-11-10T20:14:39.050Z,15.37
2018-11-10T20:17:07.715Z,15.00
2018-11-10T20:19:36.239Z,12.73
2018-11-10T20:22:05.204Z,14.13
2018-11-10T20:24:33.854Z,11.83
2018-11-10T20:27:03.120Z,12.27
2018-11-10T20:29:31.725Z,12.37
2018-11-10T20:32:00.358Z,11.27
2018-11-10T20:37:07.609Z,12.67
2018-11-10T20:39:43.174Z,12.73
2018-11-10T20:42:12.135Z,12.60
2018-11-10T20:44:40.606Z,15.30
2018-11-10T20:47:08.999Z,15.37
2018-11-10T20:49:37.985Z,12.23
2018-11-10T20:52:06.639Z,11.87
2018-11-10T20:54:35.154Z,11.77
2018-11-10T20:57:04.304Z,13.40
2018-11-10T20:59:33.672Z,12.07
2018-11-10T21:02:02.198Z,11.70
2018-11-10T21:04:30.704Z,12.43
2018-11-10T21:06:59.009Z,12.33
2018-11-10T21:09:27.667Z,13.47
2018-11-10T21:11:56.552Z,12.80
2018-11-10T21:14:25.146Z,13.73
2018-11-10T21:16:53.533Z,15.60
2018-11-10T21:19:22.034Z,13.27
2018-11-10T21:21:50.788Z,13.90
2018-11-10T21:24:21.240Z,15.03
2018-11-10T21:26:50.761Z,18.70
2018-11-10T21:29:19.220Z,17.53
2018-11-10T21:31:48.081Z,14.73
2018-11-10T21:34:16.793Z,16.20
2018-11-10T21:36:45.798Z,15.10
2018-11-10T21:39:14.432Z,15.97
2018-11-10T21:41:42.928Z,15.10
2018-11-10T21:44:11.442Z,15.80
2018-11-10T21:46:40.908Z,16.60
2018-11-10T21:49:09.494Z,15.23
2018-11-10T21:51:37.878Z,16.50
2018-11-10T21:54:06.595Z,17.90
2018-11-10T21:56:36.116Z,18.30
2018-11-10T21:59:04.736Z,28.97
2018-11-10T22:01:33.396Z,20.67
2018-11-10T22:04:04.030Z,23.40
2018-11-10T22:06:32.677Z,24.70
2018-11-10T22:09:01.173Z,21.37
2018-11-10T22:11:29.632Z,23.20
2018-11-10T22:13:59.155Z,21.73
2018-11-10T22:16:30.098Z,26.10
2018-11-10T22:18:58.759Z,19.13
2018-11-10T22:21:27.291Z,25.80
2018-11-10T22:23:55.635Z,23.60
2018-11-10T22:26:24.232Z,27.63
2018-11-10T22:28:52.632Z,26.50
2018-11-10T22:31:21.013Z,28.03
2018-11-10T22:33:49.494Z,24.70
2018-11-10T22:36:18.034Z,25.77
2018-11-10T22:38:47.423Z,28.60
2018-11-10T22:41:16.208Z,24.63
2018-11-10T22:43:45.147Z,28.43
2018-11-10T22:46:14.263Z,29.97
2018-11-10T22:48:43.283Z,30.50
2018-11-10T22:51:11.665Z,30.73
2018-11-10T22:53:40.100Z,31.60
2018-11-10T22:56:08.740Z,31.33
2018-11-10T22:58:37.032Z,31.00
2018-11-10T23:01:08.337Z,27.97
2018-11-10T23:03:37.715Z,32.73
2018-11-10T23:06:06.860Z,30.50
2018-11-10T23:08:35.187Z,26.17
2018-11-10T23:11:03.771Z,26.90
2018-11-10T23:13:32.124Z,28.40
2018-11-10T23:16:00.398Z,29.17
2018-11-10T23:18:28.939Z,27.73
2018-11-10T23:20:57.274Z,27.77
2018-11-10T23:23:25.644Z,26.33
2018-11-10T23:25:53.979Z,30.80
2018-11-10T23:28:22.347Z,41.10
2018-11-10T23:30:50.683Z,37.80
2018-11-10T23:33:19.006Z,30.23
2018-11-10T23:35:47.483Z,31.90
2018-11-10T23:38:15.750Z,31.47
2018-11-10T23:40:44.084Z,28.27
2018-11-10T23:43:12.521Z,31.57
2018-11-10T23:45:40.835Z,29.80
2018-11-10T23:48:09.258Z,30.70
2018-11-10T23:50:37.898Z,30.67
2018-11-10T23:53:06.790Z,25.37
2018-11-10T23:55:35.220Z,28.50
2018-11-10T23:58:03.701Z,28.20
